createdAt,value
2022-08-14T00:01:56.662Z,5.72
2022-08-14T00:04:34.436Z,6.07
2022-08-14T00:07:10.225Z,6.80
2022-08-14T00:09:55.825Z,10.88
2022-08-14T00:12:48.065Z,6.97
2022-08-14T00:15:18.471Z,6.90
2022-08-14T00:17:47.848Z,8.07
2022-08-14T00:20:31.015Z,7.38
2022-08-14T00:23:12.595Z,6.28
2022-08-14T00:25:53.820Z,7.00
2022-08-14T00:28:32.809Z,6.95
2022-08-14T00:31:02.819Z,6.85
2022-08-14T00:33:52.330Z,6.85
2022-08-14T00:36:35.425Z,7.60
2022-08-14T00:39:09.642Z,7.30
2022-08-14T00:41:39.020Z,7.50
2022-08-14T00:44:08.158Z,7.72
2022-08-14T00:46:37.157Z,7.68
2022-08-14T00:49:04.897Z,8.43
2022-08-14T00:51:37.667Z,8.30
2022-08-14T00:54:17.102Z,6.90
2022-08-14T00:56:55.687Z,7.55
2022-08-14T00:59:25.247Z,11.32
2022-08-14T01:01:58.237Z,8.30
2022-08-14T01:04:51.618Z,8.25
2022-08-14T01:07:20.989Z,8.07
2022-08-14T01:10:01.857Z,8.98
2022-08-14T01:12:30.515Z,7.63
2022-08-14T01:14:59.460Z,10.73
2022-08-14T01:17:49.980Z,7.88
2022-08-14T01:20:40.080Z,7.63
2022-08-14T01:23:16.640Z,8.45
2022-08-14T01:25:51.544Z,9.32
2022-08-14T01:28:46.162Z,9.00
2022-08-14T01:31:12.497Z,11.02
2022-08-14T01:34:00.141Z,10.05
2022-08-14T01:36:36.709Z,11.07
2022-08-14T01:39:23.886Z,8.15
2022-08-14T01:41:58.554Z,7.68
2022-08-14T01:44:32.881Z,7.88
2022-08-14T01:47:05.794Z,10.13
2022-08-14T01:49:35.358Z,10.25
2022-08-14T01:52:03.702Z,9.27
2022-08-14T01:54:38.142Z,9.57
2022-08-14T01:57:11.613Z,9.75
2022-08-14T01:59:41.109Z,10.27
2022-08-14T02:02:19.021Z,9.27
2022-08-14T02:04:57.110Z,10.55
2022-08-14T02:07:34.330Z,8.35
2022-08-14T02:10:15.953Z,8.45
2022-08-14T02:12:54.117Z,9.73
2022-08-14T02:15:25.778Z,8.63
2022-08-14T02:17:53.330Z,10.27
2022-08-14T02:20:23.846Z,9.63
2022-08-14T02:22:55.063Z,8.75
2022-08-14T02:25:22.529Z,10.07
2022-08-14T02:28:23.107Z,9.07
2022-08-14T02:30:43.268Z,9.48
2022-08-14T02:33:12.340Z,8.75
2022-08-14T02:35:43.462Z,11.82
2022-08-14T02:38:11.919Z,9.30
2022-08-14T02:40:59.998Z,9.02
2022-08-14T02:43:37.346Z,8.48
2022-08-14T02:46:20.475Z,9.13
2022-08-14T02:49:01.918Z,9.30
2022-08-14T02:51:33.709Z,12.20
2022-08-14T02:54:03.697Z,10.10
2022-08-14T02:57:16.345Z,10.43
2022-08-14T02:59:19.117Z,9.55
2022-08-14T03:01:51.054Z,9.50
2022-08-14T03:04:21.780Z,8.35
2022-08-14T03:06:57.951Z,11.73
2022-08-14T03:09:42.358Z,10.52
2022-08-14T03:12:31.550Z,9.65
2022-08-14T03:15:03.143Z,9.80
2022-08-14T03:17:40.757Z,8.93
2022-08-14T03:20:19.079Z,9.05
2022-08-14T03:22:49.861Z,10.68
2022-08-14T03:25:17.858Z,10.13
2022-08-14T03:27:48.228Z,8.77
2022-08-14T03:30:39.224Z,9.93
2022-08-14T03:33:11.548Z,12.43
2022-08-14T03:36:07.593Z,10.90
2022-08-14T03:39:15.880Z,10.00
2022-08-14T03:41:16.914Z,13.35
2022-08-14T03:43:44.545Z,10.10
2022-08-14T03:46:38.758Z,10.00
2022-08-14T03:49:02.944Z,9.35
2022-08-14T03:51:30.053Z,10.45
2022-08-14T03:53:59.477Z,9.50
2022-08-14T03:56:30.067Z,9.63
2022-08-14T03:59:02.339Z,9.48
2022-08-14T04:01:38.919Z,9.82
2022-08-14T04:04:07.964Z,10.82
2022-08-14T04:06:47.489Z,10.30
2022-08-14T04:09:14.651Z,11.10
2022-08-14T04:11:43.747Z,10.25
2022-08-14T04:14:10.730Z,12.02
2022-08-14T04:16:47.378Z,9.80
2022-08-14T04:19:17.390Z,10.70
2022-08-14T04:22:02.104Z,9.55
2022-08-14T04:24:38.523Z,9.95
2022-08-14T04:27:09.442Z,9.30
2022-08-14T04:29:42.550Z,11.15
2022-08-14T04:33:02.566Z,10.63
2022-08-14T04:34:57.956Z,9.20
2022-08-14T04:37:45.472Z,9.13
2022-08-14T04:40:32.777Z,9.50
2022-08-14T04:43:20.795Z,9.35
2022-08-14T04:45:51.381Z,8.77
2022-08-14T04:48:39.792Z,9.60
2022-08-14T04:51:13.868Z,11.48
2022-08-14T04:53:44.530Z,9.32
2022-08-14T04:56:30.456Z,9.30
2022-08-14T04:59:09.993Z,11.73
2022-08-14T05:01:49.120Z,11.55
2022-08-14T05:04:20.795Z,8.80
2022-08-14T05:06:49.613Z,10.25
2022-08-14T05:09:20.609Z,11.10
2022-08-14T05:11:49.862Z,10.48
2022-08-14T05:14:45.837Z,9.32
2022-08-14T05:17:10.864Z,7.75
2022-08-14T05:19:45.060Z,10.20
2022-08-14T05:22:27.059Z,11.95
2022-08-14T05:24:54.178Z,7.85
2022-08-14T05:27:22.604Z,9.45
2022-08-14T05:29:56.900Z,8.40
2022-08-14T05:32:27.722Z,8.02
2022-08-14T05:34:59.549Z,8.60
2022-08-14T05:37:29.545Z,8.82
2022-08-14T05:39:58.424Z,7.82
2022-08-14T05:42:26.968Z,9.27
2022-08-14T05:44:56.174Z,8.32
2022-08-14T05:47:23.782Z,8.38
2022-08-14T05:49:51.590Z,6.82
2022-08-14T05:52:38.672Z,8.73
2022-08-14T05:55:08.575Z,10.70
2022-08-14T05:57:49.540Z,7.15
2022-08-14T06:00:28.192Z,6.93
2022-08-14T06:02:56.311Z,6.35
2022-08-14T06:05:24.188Z,6.82
2022-08-14T06:07:57.337Z,6.82
2022-08-14T06:10:24.646Z,6.25
2022-08-14T06:12:56.820Z,6.72
2022-08-14T06:15:29.610Z,6.80
2022-08-14T06:17:59.635Z,6.97
2022-08-14T06:20:28.180Z,8.48
2022-08-14T06:22:56.461Z,6.38
2022-08-14T06:25:25.037Z,7.05
2022-08-14T06:27:53.437Z,7.07
2022-08-14T06:30:24.005Z,5.45
2022-08-14T06:32:57.892Z,7.50
2022-08-14T06:35:24.708Z,5.40
2022-08-14T06:38:00.431Z,6.75
2022-08-14T06:40:36.465Z,5.82
2022-08-14T06:43:09.724Z,5.20
2022-08-14T06:45:38.920Z,5.28
2022-08-14T06:48:17.904Z,5.35
2022-08-14T06:50:46.699Z,5.68
2022-08-14T06:53:14.703Z,7.05
2022-08-14T06:55:58.022Z,7.35
2022-08-14T06:58:29.262Z,5.38
2022-08-14T07:01:23.143Z,5.65
2022-08-14T07:04:12.792Z,5.30
2022-08-14T07:06:50.370Z,6.50
2022-08-14T07:09:22.470Z,5.82
2022-08-14T07:11:51.766Z,7.10
2022-08-14T07:14:18.753Z,6.32
2022-08-14T07:16:45.651Z,5.78
2022-08-14T07:19:12.548Z,5.35
2022-08-14T07:21:39.701Z,8.43
2022-08-14T07:24:09.540Z,6.05
2022-08-14T07:26:48.417Z,4.97
2022-08-14T07:29:15.240Z,6.28
2022-08-14T07:31:44.701Z,7.78
2022-08-14T07:34:13.451Z,5.65
2022-08-14T07:37:01.489Z,6.10
2022-08-14T07:39:28.528Z,6.38
2022-08-14T07:41:55.382Z,5.20
2022-08-14T07:44:32.141Z,5.20
2022-08-14T07:47:00.695Z,5.88
2022-08-14T07:49:28.735Z,6.35
2022-08-14T07:51:56.767Z,6.30
2022-08-14T07:54:29.976Z,5.40
2022-08-14T07:57:12.312Z,7.57
2022-08-14T07:59:48.372Z,5.90
2022-08-14T08:02:19.257Z,5.80
2022-08-14T08:04:50.469Z,7.15
2022-08-14T08:07:21.799Z,5.63
2022-08-14T08:09:56.365Z,6.05
2022-08-14T08:12:30.061Z,6.78
2022-08-14T08:15:05.484Z,5.78
2022-08-14T08:17:38.762Z,7.63
2022-08-14T08:20:15.717Z,7.60
2022-08-14T08:22:48.102Z,6.18
2022-08-14T08:25:18.163Z,7.18
2022-08-14T08:28:08.147Z,6.97
2022-08-14T08:30:49.613Z,5.78
2022-08-14T08:33:18.532Z,6.88
2022-08-14T08:35:50.271Z,7.70
2022-08-14T08:39:18.490Z,6.07
2022-08-14T08:41:11.922Z,5.65
2022-08-14T08:43:46.357Z,6.90
2022-08-14T08:46:23.731Z,6.07
2022-08-14T08:51:33.371Z,6.03
2022-08-14T08:54:06.251Z,6.03
2022-08-14T08:56:39.852Z,7.82
2022-08-14T08:59:27.062Z,6.68
2022-08-14T09:02:03.976Z,7.57
2022-08-14T09:04:45.768Z,5.97
2022-08-14T09:07:30.548Z,5.72
2022-08-14T09:10:00.011Z,6.28
2022-08-14T09:12:29.826Z,7.70
2022-08-14T09:15:01.777Z,7.80
2022-08-14T09:17:28.980Z,6.78
2022-08-14T09:19:56.062Z,6.30
2022-08-14T09:22:36.101Z,6.30
2022-08-14T09:25:07.619Z,5.60
2022-08-14T09:27:36.648Z,6.00
2022-08-14T09:30:31.015Z,6.32
2022-08-14T09:33:16.107Z,5.18
2022-08-14T09:36:14.800Z,6.47
2022-08-14T09:38:58.902Z,7.43
2022-08-14T09:42:21.650Z,6.15
2022-08-14T09:45:08.373Z,5.55
2022-08-14T09:47:56.263Z,5.82
2022-08-14T09:50:51.401Z,6.03
2022-08-14T09:54:13.441Z,5.45
2022-08-14T09:56:31.876Z,5.75
2022-08-14T09:59:15.341Z,5.45
2022-08-14T10:01:46.109Z,6.32
2022-08-14T10:04:33.704Z,5.75
2022-08-14T10:07:03.747Z,5.65
2022-08-14T10:09:33.486Z,5.75
2022-08-14T10:12:04.287Z,5.20
2022-08-14T10:14:35.943Z,5.63
2022-08-14T10:17:08.440Z,5.40
2022-08-14T10:19:46.892Z,5.57
2022-08-14T10:23:21.944Z,5.40
2022-08-14T10:25:17.412Z,5.85
2022-08-14T10:27:50.139Z,6.82
2022-08-14T10:30:25.542Z,5.75
2022-08-14T10:32:55.523Z,5.53
2022-08-14T10:35:30.876Z,4.70
2022-08-14T10:38:00.863Z,6.72
2022-08-14T10:40:37.696Z,5.32
2022-08-14T10:43:23.957Z,6.30
2022-08-14T10:47:37.388Z,5.85
2022-08-14T10:49:04.469Z,7.57
2022-08-14T10:51:39.689Z,6.10
2022-08-14T10:54:26.060Z,5.35
2022-08-14T10:57:22.448Z,5.20
2022-08-14T10:59:59.741Z,6.20
2022-08-14T11:02:45.067Z,5.35
2022-08-14T11:05:19.399Z,5.03
2022-08-14T11:07:56.514Z,5.28
2022-08-14T11:10:48.468Z,5.07
2022-08-14T11:13:30.066Z,6.93
2022-08-14T11:16:02.005Z,7.78
2022-08-14T11:18:35.788Z,5.97
2022-08-14T11:21:06.511Z,5.43
2022-08-14T11:23:38.217Z,6.00
2022-08-14T11:26:08.749Z,5.88
2022-08-14T11:28:47.032Z,5.70
2022-08-14T11:31:20.205Z,5.88
2022-08-14T11:33:57.811Z,10.38
2022-08-14T11:36:56.900Z,5.18
2022-08-14T11:39:35.030Z,6.07
2022-08-14T11:42:57.848Z,5.55
2022-08-14T11:45:03.397Z,5.53
2022-08-14T11:47:43.909Z,5.68
2022-08-14T11:50:36.736Z,6.93
2022-08-14T11:53:07.126Z,5.55
2022-08-14T11:55:38.462Z,5.82
2022-08-14T11:58:11.346Z,6.18
2022-08-14T12:00:53.982Z,5.25
2022-08-14T12:03:37.199Z,5.25
2022-08-14T12:06:29.489Z,4.72
2022-08-14T12:09:00.077Z,7.35
2022-08-14T12:11:43.485Z,5.40
2022-08-14T12:14:13.282Z,5.28
2022-08-14T12:17:12.785Z,8.18
2022-08-14T12:19:51.255Z,5.20
2022-08-14T12:22:43.129Z,5.57
2022-08-14T12:25:14.113Z,8.20
2022-08-14T12:27:52.504Z,5.35
2022-08-14T12:30:43.161Z,6.47
2022-08-14T12:33:30.912Z,5.68
2022-08-14T12:36:04.421Z,6.60
2022-08-14T12:38:35.863Z,5.75
2022-08-14T12:41:06.436Z,5.78
2022-08-14T12:43:46.158Z,5.70
2022-08-14T12:46:28.322Z,6.53
2022-08-14T12:49:03.909Z,5.32
2022-08-14T12:51:31.382Z,5.57
2022-08-14T12:54:00.040Z,5.50
2022-08-14T12:56:32.914Z,5.60
2022-08-14T12:59:03.248Z,5.80
2022-08-14T13:01:59.247Z,5.20
2022-08-14T13:04:21.630Z,5.57
2022-08-14T13:06:51.462Z,9.45
2022-08-14T13:09:20.137Z,7.43
2022-08-14T13:11:59.079Z,6.60
2022-08-14T13:14:43.097Z,5.95
2022-08-14T13:17:11.654Z,5.25
2022-08-14T13:19:40.592Z,5.75
2022-08-14T13:22:09.808Z,6.53
2022-08-14T13:24:39.742Z,6.07
2022-08-14T13:27:10.002Z,7.75
2022-08-14T13:29:46.533Z,5.72
2022-08-14T13:32:14.308Z,6.32
2022-08-14T13:34:43.781Z,6.25
2022-08-14T13:37:14.641Z,5.63
2022-08-14T13:39:46.926Z,7.40
2022-08-14T13:42:23.858Z,5.82
2022-08-14T13:44:53.207Z,8.40
2022-08-14T13:47:21.659Z,5.63
2022-08-14T13:49:57.921Z,6.13
2022-08-14T13:52:52.518Z,6.25
2022-08-14T13:55:16.414Z,5.68
2022-08-14T13:57:49.768Z,5.38
2022-08-14T14:00:32.426Z,8.70
2022-08-14T14:03:00.428Z,6.72
2022-08-14T14:05:52.268Z,6.22
2022-08-14T14:08:18.590Z,6.68
2022-08-14T14:11:03.380Z,6.03
2022-08-14T14:13:31.839Z,5.95
2022-08-14T14:16:02.812Z,6.65
2022-08-14T14:18:34.794Z,6.55
2022-08-14T14:21:03.413Z,5.45
2022-08-14T14:23:32.542Z,7.45
2022-08-14T14:25:59.991Z,5.95
2022-08-14T14:28:32.218Z,7.72
2022-08-14T14:31:06.746Z,6.22
2022-08-14T14:33:47.030Z,6.57
2022-08-14T14:36:25.028Z,6.78
2022-08-14T14:39:04.699Z,5.80
2022-08-14T14:41:38.111Z,7.57
2022-08-14T14:44:16.096Z,6.32
2022-08-14T14:46:51.012Z,6.38
2022-08-14T14:49:22.238Z,7.28
2022-08-14T14:51:58.916Z,5.78
2022-08-14T14:54:30.910Z,5.82
2022-08-14T14:57:00.568Z,6.13
2022-08-14T14:59:33.472Z,6.07
2022-08-14T15:02:09.233Z,8.63
2022-08-14T15:04:38.972Z,6.38
2022-08-14T15:07:12.350Z,5.47
2022-08-14T15:09:41.144Z,5.97
2022-08-14T15:12:34.181Z,5.95
2022-08-14T15:14:58.049Z,5.82
2022-08-14T15:17:40.838Z,6.22
2022-08-14T15:20:11.369Z,5.90
2022-08-14T15:22:50.925Z,5.32
2022-08-14T15:25:18.834Z,5.20
2022-08-14T15:27:49.980Z,5.22
2022-08-14T15:30:23.703Z,7.13
2022-08-14T15:32:53.137Z,7.60
2022-08-14T15:35:22.731Z,5.97
2022-08-14T15:37:55.632Z,5.57
2022-08-14T15:40:23.647Z,6.00
2022-08-14T15:42:51.038Z,5.57
2022-08-14T15:45:18.977Z,6.28
2022-08-14T15:47:45.771Z,5.20
2022-08-14T15:50:13.066Z,5.53
2022-08-14T15:52:43.120Z,6.68
2022-08-14T15:55:14.914Z,5.93
2022-08-14T15:58:01.812Z,5.68
2022-08-14T16:00:52.752Z,6.90
2022-08-14T16:03:27.401Z,6.47
2022-08-14T16:06:05.676Z,6.07
2022-08-14T16:08:33.505Z,6.00
2022-08-14T16:11:04.170Z,7.30
2022-08-14T16:13:44.620Z,6.05
2022-08-14T16:16:49.391Z,6.30
2022-08-14T16:19:10.064Z,6.10
2022-08-14T16:21:40.524Z,6.07
2022-08-14T16:24:26.848Z,7.43
2022-08-14T16:27:00.843Z,6.72
2022-08-14T16:29:31.274Z,8.35
2022-08-14T16:32:01.729Z,6.88
2022-08-14T16:34:47.320Z,6.38
2022-08-14T16:37:18.342Z,5.50
2022-08-14T16:39:48.624Z,6.10
2022-08-14T16:43:02.843Z,5.15
2022-08-14T16:45:04.118Z,6.80
2022-08-14T16:47:34.945Z,7.35
2022-08-14T16:50:08.427Z,5.95
2022-08-14T16:52:44.703Z,7.30
2022-08-14T16:55:13.984Z,6.63
2022-08-14T16:57:54.509Z,6.30
2022-08-14T17:00:32.752Z,6.90
2022-08-14T17:03:08.622Z,6.15
2022-08-14T17:05:43.406Z,5.07
2022-08-14T17:08:32.562Z,8.13
2022-08-14T17:11:11.124Z,5.65
2022-08-14T17:13:59.168Z,5.97
2022-08-14T17:16:37.178Z,5.22
2022-08-14T17:19:09.974Z,5.20
2022-08-14T17:21:41.659Z,6.68
2022-08-14T17:24:56.043Z,5.80
2022-08-14T17:27:05.224Z,6.75
2022-08-14T17:29:56.152Z,5.82
2022-08-14T17:32:29.819Z,5.38
2022-08-14T17:35:09.992Z,5.60
2022-08-14T17:37:45.162Z,7.57
2022-08-14T17:40:16.052Z,5.30
2022-08-14T17:42:51.809Z,7.03
2022-08-14T17:45:43.023Z,5.57
2022-08-14T17:49:09.952Z,5.38
2022-08-14T17:51:24.157Z,5.28
2022-08-14T17:54:02.322Z,5.63
2022-08-14T17:56:32.303Z,6.25
2022-08-14T17:59:05.946Z,6.82
2022-08-14T18:01:37.967Z,5.70
2022-08-14T18:04:24.524Z,5.20
2022-08-14T18:07:08.786Z,5.75
2022-08-14T18:09:57.366Z,5.28
2022-08-14T18:12:36.872Z,5.75
2022-08-14T18:15:16.441Z,8.30
2022-08-14T18:17:54.107Z,5.10
2022-08-14T18:21:41.266Z,5.32
2022-08-14T18:23:13.607Z,5.80
2022-08-14T18:25:50.408Z,5.53
2022-08-14T18:28:40.620Z,6.05
2022-08-14T18:31:20.811Z,6.82
2022-08-14T18:33:59.746Z,8.43
2022-08-14T18:36:57.088Z,6.18
2022-08-14T18:40:01.957Z,6.63
2022-08-14T18:42:24.411Z,7.47
2022-08-14T18:45:00.956Z,6.55
2022-08-14T18:47:32.618Z,6.47
2022-08-14T18:50:27.617Z,5.97
2022-08-14T18:53:07.601Z,6.35
2022-08-14T18:55:35.791Z,7.28
2022-08-14T18:58:27.792Z,5.82
2022-08-14T19:00:58.738Z,6.32
2022-08-14T19:03:36.591Z,12.18
2022-08-14T19:06:07.202Z,7.28
2022-08-14T19:08:45.464Z,6.15
2022-08-14T19:11:37.584Z,8.35
2022-08-14T19:14:06.049Z,6.65
2022-08-14T19:16:35.696Z,7.30
2022-08-14T19:19:08.775Z,10.82
2022-08-14T19:21:36.669Z,9.20
2022-08-14T19:24:27.702Z,6.82
2022-08-14T19:27:24.279Z,6.20
2022-08-14T19:30:19.690Z,11.23
2022-08-14T19:32:50.702Z,7.43
2022-08-14T19:35:54.945Z,7.22
2022-08-14T19:38:48.174Z,7.45
2022-08-14T19:41:17.079Z,7.80
2022-08-14T19:43:55.838Z,8.25
2022-08-14T19:46:37.816Z,9.40
2022-08-14T19:49:07.065Z,6.78
2022-08-14T19:51:48.940Z,7.25
2022-08-14T19:54:16.209Z,7.93
2022-08-14T19:56:45.079Z,7.28
2022-08-14T19:59:18.898Z,12.95
2022-08-14T20:01:51.238Z,7.65
2022-08-14T20:04:45.086Z,6.88
2022-08-14T20:07:27.210Z,6.30
2022-08-14T20:11:08.262Z,9.00
2022-08-14T20:13:14.540Z,10.40
2022-08-14T20:15:50.754Z,9.23
2022-08-14T20:18:48.990Z,7.60
2022-08-14T20:21:13.683Z,6.70
2022-08-14T20:23:41.861Z,8.50
2022-08-14T20:26:30.851Z,7.63
2022-08-14T20:29:05.088Z,8.00
2022-08-14T20:31:36.378Z,7.25
2022-08-14T20:34:24.337Z,9.20
2022-08-14T20:37:04.716Z,8.77
2022-08-14T20:39:54.649Z,8.05
2022-08-14T20:42:43.564Z,6.85
2022-08-14T20:45:17.975Z,7.55
2022-08-14T20:47:50.655Z,8.80
2022-08-14T20:50:28.964Z,8.40
2022-08-14T20:52:58.230Z,8.60
2022-08-14T20:55:32.381Z,7.60
2022-08-14T20:58:09.997Z,9.60
2022-08-14T21:01:11.354Z,7.10
2022-08-14T21:03:56.400Z,7.63
2022-08-14T21:07:22.790Z,9.88
2022-08-14T21:10:05.202Z,8.65
2022-08-14T21:12:34.785Z,7.53
2022-08-14T21:14:58.510Z,6.20
2022-08-14T21:17:25.480Z,7.05
2022-08-14T21:19:53.903Z,8.10
2022-08-14T21:22:21.215Z,7.47
2022-08-14T21:24:48.415Z,7.60
2022-08-14T21:27:20.288Z,7.47
2022-08-14T21:29:55.382Z,8.68
2022-08-14T21:32:47.219Z,9.48
2022-08-14T21:35:24.392Z,8.00
2022-08-14T21:37:52.412Z,10.68
2022-08-14T21:40:40.753Z,8.10
2022-08-14T21:43:17.167Z,9.90
2022-08-14T21:45:53.646Z,12.13
2022-08-14T21:48:29.868Z,9.30
2022-08-14T21:51:01.746Z,9.00
2022-08-14T21:53:58.380Z,11.50
2022-08-14T21:56:37.230Z,8.60
2022-08-14T21:59:09.692Z,7.50
2022-08-14T22:02:01.218Z,8.07
2022-08-14T22:04:33.780Z,7.80
2022-08-14T22:07:07.343Z,7.65
2022-08-14T22:09:36.576Z,7.65
2022-08-14T22:12:06.781Z,9.63
2022-08-14T22:14:43.767Z,7.88
2022-08-14T22:17:16.299Z,8.90
2022-08-14T22:19:54.994Z,7.15
2022-08-14T22:22:26.004Z,8.00
2022-08-14T22:25:00.413Z,8.70
2022-08-14T22:27:32.392Z,9.93
2022-08-14T22:30:01.085Z,7.70
2022-08-14T22:32:56.432Z,9.48
2022-08-14T22:35:17.072Z,9.80
2022-08-14T22:37:44.719Z,7.50
2022-08-14T22:40:43.844Z,8.65
2022-08-14T22:43:07.985Z,7.28
2022-08-14T22:45:37.699Z,8.75
2022-08-14T22:48:10.728Z,9.32
2022-08-14T22:50:48.990Z,9.60
2022-08-14T22:53:16.021Z,8.40
2022-08-14T22:55:43.418Z,7.85
2022-08-14T22:58:11.429Z,8.57
2022-08-14T23:00:45.599Z,8.60
2022-08-14T23:03:17.184Z,9.13
2022-08-14T23:05:52.661Z,8.68
2022-08-14T23:08:59.425Z,7.75
2022-08-14T23:11:10.046Z,10.57
2022-08-14T23:13:39.236Z,10.82
2022-08-14T23:16:08.394Z,8.85
2022-08-14T23:18:38.872Z,9.82
2022-08-14T23:21:10.415Z,10.60
2022-08-14T23:23:41.472Z,9.40
2022-08-14T23:26:47.266Z,8.85
2022-08-14T23:28:58.352Z,8.63
2022-08-14T23:31:36.107Z,9.82
2022-08-14T23:34:07.105Z,8.73
2022-08-14T23:36:37.939Z,10.57
2022-08-14T23:39:24.674Z,10.75
2022-08-14T23:42:04.225Z,8.70
2022-08-14T23:44:34.970Z,9.55
2022-08-14T23:47:12.251Z,8.82
2022-08-14T23:50:03.863Z,10.60
2022-08-14T23:53:04.158Z,9.80
2022-08-14T23:55:29.557Z,10.55
2022-08-14T23:57:57.812Z,10.00
